Airfield :
LOGIN :

Register | Disclaimer

   EN    FR    IT 

 










Legend :    VFR   Marginal VFR   IFR   Intensive IFR   Very Intensive IFR
Visi :
Ceiling :
>= 8 km
>= 3000ft
5 to 8 km
1000 to 3000 ft
1500m to 5 km
500 to 1000 ft
800 to 1500m
200 to 500 ft
< 800m
< 200 ft
Symbols :   Thunderstorms  Fog  Heavy snow  Heavy precipitations  Wind > 20 kt
SIGMETs :     Misc.  Thunderstorms  Icing  Turbulence  Mountain Waves  Volcanic Ashes






- Airport Elevation : 17 ft
- IATA code : CPH


EKCH - København - Kastrup (Copenhagen)

CURRENT METAR :
  • 190720Z AUTO 28006KT 9999 OVC015/// 04/03 Q1027 NOSIG

EXPIRED METARs :
  • 190650Z AUTO 27004KT 9999 OVC015/// 04/03 Q1026 TEMPO BKN014
  • 190620Z AUTO 26004KT 9999 BKN015/// 03/02 Q1026 TEMPO BKN014
  • 190550Z AUTO 26005KT 9999 BKN014/// 03/02 Q1025 TEMPO BKN015
  • 190520Z AUTO 26006KT 9999 BKN014/// 02/02 Q1025 TEMPO BKN015
  • 190450Z AUTO 26007KT 9999 SCT014/// 03/02 Q1024 NOSIG

TAF TAF EKCH
Valid from the 19 at 06:00 until the 20 at 06:00 UTC


190505Z 1906/2006 26008KT 9999 FEW020
TEMPO 1906/1908 BKN012
PROB40 2000/2006 3000 BR



MET'MAP, your aeronautical weather chart ! - Copyright ORBIFLY December 2007 - Disclaimer

ORBIFLY MET'MAP TEAM :

Programming & Development : Alexandra Zaïnal
Concept & original design : Baudouin d'Aumeries
Assistance for programming : Marc-Olivier Méhu
Technical & hardware support : Manuel Goepfert

Contact : metmap@orbifly.com




SOURCES & CREDITS :

   NOAA